createdAt,value
2019-02-22T00:03:19.709Z,100531.50
2019-02-22T00:08:59.677Z,100534.12
2019-02-22T00:11:30.548Z,100526.96
2019-02-22T00:14:19.854Z,100531.45
2019-02-22T00:17:09.229Z,100532.45
2019-02-22T00:22:39.907Z,100529.59
2019-02-22T00:33:48.972Z,100550.44
2019-02-22T00:39:29.160Z,100556.45
2019-02-22T00:42:30.185Z,100552.95
2019-02-22T00:51:02.600Z,100557.22
2019-02-22T00:59:13.210Z,100562.88
2019-02-22T01:02:02.554Z,100562.57
2019-02-22T01:05:03.427Z,100564.55
2019-02-22T01:08:03.852Z,100557.98
2019-02-22T01:14:12.592Z,100570.08
2019-02-22T01:17:01.873Z,100561.70
2019-02-22T01:19:32.254Z,100570.92
2019-02-22T01:22:41.524Z,100566.56
2019-02-22T01:25:50.779Z,100478.25
2019-02-22T01:28:21.466Z,100572.69
2019-02-22T01:34:12.418Z,100582.85
2019-02-22T01:37:03.271Z,100588.52
2019-02-22T01:40:12.339Z,100586.13
2019-02-22T01:51:51.139Z,100591.78
2019-02-22T01:57:43.469Z,100598.81
2019-02-22T02:03:35.883Z,100607.38
2019-02-22T02:09:37.538Z,100614.55
2019-02-22T02:12:07.967Z,100612.88
2019-02-22T02:14:38.532Z,100613.31
2019-02-22T02:17:09.208Z,100617.89
2019-02-22T02:19:40.959Z,100621.52
2019-02-22T02:22:30.623Z,100614.89
2019-02-22T02:25:01.165Z,100619.27
2019-02-22T02:27:31.871Z,100618.20
2019-02-22T02:30:41.009Z,100616.97
2019-02-22T02:33:30.471Z,100617.89
2019-02-22T02:36:19.768Z,100616.09
2019-02-22T02:38:50.299Z,100616.41
2019-02-22T02:41:59.404Z,100619.70
2019-02-22T02:44:48.609Z,100623.01
2019-02-22T02:47:19.098Z,100627.45
2019-02-22T02:50:28.234Z,100619.21
2019-02-22T02:53:08.760Z,100621.84
2019-02-22T02:55:39.383Z,100632.69
2019-02-22T02:58:09.785Z,100630.77
2019-02-22T03:01:10.689Z,100638.44
2019-02-22T03:03:41.387Z,100639.31
2019-02-22T03:06:50.800Z,100643.54
2019-02-22T03:09:51.492Z,100643.61
2019-02-22T03:12:39.465Z,100638.86
2019-02-22T03:15:11.504Z,100648.25
2019-02-22T03:20:44.054Z,100654.68
2019-02-22T03:26:12.085Z,100646.63
2019-02-22T03:29:21.342Z,100655.81
2019-02-22T03:32:12.192Z,100656.00
2019-02-22T03:34:42.705Z,100660.07
2019-02-22T03:43:51.968Z,100668.99
2019-02-22T03:49:23.963Z,100682.61
2019-02-22T03:51:54.422Z,100677.28
2019-02-22T03:54:24.753Z,100675.47
2019-02-22T04:03:03.892Z,100692.94
2019-02-22T04:08:34.342Z,100687.23
2019-02-22T04:11:24.936Z,100682.86
2019-02-22T04:13:55.856Z,100686.06
2019-02-22T04:17:05.015Z,100685.56
2019-02-22T04:19:54.544Z,100685.25
2019-02-22T04:25:35.064Z,100700.81
2019-02-22T04:30:44.902Z,100703.38
2019-02-22T04:33:15.568Z,100714.45
2019-02-22T04:41:57.357Z,100722.47
2019-02-22T04:44:37.134Z,100727.80
2019-02-22T04:50:09.850Z,100736.34
2019-02-22T04:55:20.388Z,100748.62
2019-02-22T04:58:11.352Z,100679.72
2019-02-22T05:01:12.458Z,100757.88
2019-02-22T05:04:03.196Z,100761.91
2019-02-22T05:06:33.625Z,100766.08
2019-02-22T05:09:05.737Z,100768.97
2019-02-22T05:11:55.587Z,100768.91
2019-02-22T05:17:46.880Z,100766.81
2019-02-22T05:20:48.181Z,100769.43
2019-02-22T05:26:18.883Z,100780.05
2019-02-22T05:28:49.588Z,100785.44
2019-02-22T05:31:21.075Z,100789.23
2019-02-22T05:34:13.829Z,100789.23
2019-02-22T05:36:44.977Z,100792.08
2019-02-22T05:39:34.399Z,100798.41
2019-02-22T05:42:43.621Z,100794.95
2019-02-22T05:45:14.501Z,100796.34
2019-02-22T05:47:47.317Z,100810.99
2019-02-22T05:50:17.950Z,100804.06
2019-02-22T05:52:49.041Z,100805.42
2019-02-22T05:58:40.769Z,100809.33
2019-02-22T06:01:30.271Z,100801.77
2019-02-22T06:04:39.773Z,100811.98
2019-02-22T06:07:29.149Z,100826.70
2019-02-22T06:10:18.425Z,100828.94
2019-02-22T06:13:19.612Z,100827.58
2019-02-22T06:15:50.608Z,100827.23
2019-02-22T06:18:23.125Z,100839.45
2019-02-22T06:20:54.306Z,100840.05
2019-02-22T06:24:03.675Z,100847.81
2019-02-22T06:26:52.850Z,100845.61
2019-02-22T06:29:23.794Z,100854.03
2019-02-22T06:35:16.520Z,100868.06
2019-02-22T06:38:25.774Z,100873.48
2019-02-22T06:43:58.261Z,100888.20
2019-02-22T06:46:29.020Z,100905.48
2019-02-22T06:48:59.902Z,100897.06
2019-02-22T06:51:30.809Z,100899.36
2019-02-22T06:57:21.255Z,100895.35
2019-02-22T07:00:10.641Z,100905.95
2019-02-22T07:08:42.384Z,100919.94
2019-02-22T07:11:31.955Z,100918.18
2019-02-22T07:14:21.847Z,100930.77
2019-02-22T07:17:02.371Z,100933.50
2019-02-22T07:19:33.360Z,100900.92
2019-02-22T07:22:04.195Z,100947.43
2019-02-22T07:24:34.755Z,100954.70
2019-02-22T07:27:05.700Z,100963.98
2019-02-22T07:29:55.678Z,100966.70
2019-02-22T07:33:05.082Z,100979.05
2019-02-22T07:35:35.984Z,100988.63
2019-02-22T07:38:09.001Z,100993.27
2019-02-22T07:41:18.212Z,101003.45
2019-02-22T07:44:09.042Z,101004.19
2019-02-22T07:46:59.800Z,101018.24
2019-02-22T07:49:30.469Z,101024.48
2019-02-22T07:52:01.345Z,101031.31
2019-02-22T07:54:32.042Z,101038.27
2019-02-22T07:57:02.750Z,101040.06
2019-02-22T07:59:53.553Z,101048.94
2019-02-22T08:02:23.798Z,101050.70
2019-02-22T08:10:42.862Z,101067.81
2019-02-22T08:13:19.845Z,101065.14
2019-02-22T08:16:24.472Z,101074.66
2019-02-22T08:19:33.783Z,101070.67
2019-02-22T08:22:05.201Z,100999.80
2019-02-22T08:24:36.441Z,101073.45
2019-02-22T08:27:07.723Z,101083.13
2019-02-22T08:33:03.368Z,101004.69
2019-02-22T08:35:34.252Z,101083.81
2019-02-22T08:38:04.888Z,101091.13
2019-02-22T08:40:35.872Z,101093.64
2019-02-22T08:43:06.385Z,101089.12
2019-02-22T08:45:37.105Z,101096.05
2019-02-22T08:48:26.355Z,101103.94
2019-02-22T08:51:15.749Z,101106.84
2019-02-22T08:53:46.331Z,101109.30
2019-02-22T08:56:19.221Z,101112.69
2019-02-22T08:58:50.166Z,101106.78
2019-02-22T09:01:22.617Z,101113.30
2019-02-22T09:04:04.016Z,101118.46
2019-02-22T09:06:34.645Z,101119.39
2019-02-22T09:09:43.835Z,101124.72
2019-02-22T09:12:33.127Z,101131.73
2019-02-22T09:15:42.545Z,101134.75
2019-02-22T09:18:13.197Z,101140.09
2019-02-22T09:21:13.761Z,101145.83
2019-02-22T09:24:03.768Z,101146.44
2019-02-22T09:27:12.965Z,101066.95
2019-02-22T09:29:43.857Z,101159.70
2019-02-22T09:32:12.265Z,101166.67
2019-02-22T09:34:42.732Z,101162.58
2019-02-22T09:37:32.323Z,101172.52
2019-02-22T09:46:21.401Z,101174.54
2019-02-22T09:48:54.193Z,101178.12
2019-02-22T09:51:25.292Z,101184.61
2019-02-22T09:57:01.792Z,101190.69
2019-02-22T09:59:33.014Z,101197.97
2019-02-22T10:02:25.368Z,101199.23
2019-02-22T10:05:14.929Z,101204.26
2019-02-22T10:07:47.098Z,101214.34
2019-02-22T10:10:20.982Z,101217.51
2019-02-22T10:13:10.391Z,101209.96
2019-02-22T10:15:59.910Z,101211.54
2019-02-22T10:18:49.057Z,101221.02
2019-02-22T10:21:20.067Z,101221.85
2019-02-22T10:24:00.464Z,101235.48
2019-02-22T10:26:32.361Z,101239.69
2019-02-22T10:29:02.942Z,101236.28
2019-02-22T10:31:33.535Z,101235.80
2019-02-22T10:34:08.159Z,101242.59
2019-02-22T10:39:27.687Z,101174.44
2019-02-22T10:42:19.659Z,101259.66
2019-02-22T10:44:53.861Z,101263.00
2019-02-22T10:50:59.209Z,101268.91
2019-02-22T10:56:28.308Z,101275.20
2019-02-22T10:59:09.667Z,101281.19
2019-02-22T11:02:00.903Z,101277.83
2019-02-22T11:04:31.340Z,101278.10
2019-02-22T11:07:04.018Z,101282.32
2019-02-22T11:09:34.637Z,101284.41
2019-02-22T11:12:05.191Z,101288.95
2019-02-22T11:14:35.876Z,101290.81
2019-02-22T11:17:08.185Z,101292.67
2019-02-22T11:19:39.138Z,101291.00
2019-02-22T11:22:09.334Z,101295.86
2019-02-22T11:24:40.945Z,101288.87
2019-02-22T11:27:12.490Z,101300.86
2019-02-22T11:29:45.466Z,101301.78
2019-02-22T11:32:16.625Z,101299.54
2019-02-22T11:34:47.161Z,101304.73
2019-02-22T11:37:18.285Z,101309.34
2019-02-22T11:39:49.125Z,101298.80
2019-02-22T11:42:20.162Z,101307.58
2019-02-22T11:44:50.512Z,101310.12
2019-02-22T11:47:21.226Z,101323.47
2019-02-22T11:49:51.778Z,101321.70
2019-02-22T11:52:32.918Z,101327.90
2019-02-22T11:55:03.823Z,101334.07
2019-02-22T11:57:34.320Z,101258.18
2019-02-22T12:00:06.225Z,101351.47
2019-02-22T12:02:36.666Z,101354.64
2019-02-22T12:05:07.518Z,101365.48
2019-02-22T12:07:40.510Z,101359.95
2019-02-22T12:10:30.235Z,101368.89
2019-02-22T12:13:38.579Z,101369.63
2019-02-22T12:16:20.627Z,101371.75
2019-02-22T12:18:52.970Z,101376.33
2019-02-22T12:21:42.131Z,101380.10
2019-02-22T12:29:56.264Z,101393.41
2019-02-22T12:32:30.316Z,101398.17
2019-02-22T12:35:06.842Z,101406.69
2019-02-22T12:37:38.182Z,101378.20
2019-02-22T12:40:09.817Z,101412.61
2019-02-22T12:42:40.245Z,101413.59
2019-02-22T12:45:15.900Z,101416.21
2019-02-22T12:47:51.841Z,101424.27
2019-02-22T12:50:22.622Z,101434.94
2019-02-22T12:53:04.515Z,101437.56
2019-02-22T12:58:41.451Z,101446.55
2019-02-22T13:01:17.153Z,101456.19
2019-02-22T13:03:47.733Z,101465.94
2019-02-22T13:06:19.392Z,101471.47
2019-02-22T13:08:50.290Z,101477.48
2019-02-22T13:11:22.261Z,101481.06
2019-02-22T13:16:59.284Z,101491.30
2019-02-22T13:19:32.051Z,101492.23
2019-02-22T13:22:02.661Z,101498.10
2019-02-22T13:24:37.103Z,101502.45
2019-02-22T13:27:09.172Z,101503.60
2019-02-22T13:29:42.197Z,101509.13
2019-02-22T13:32:14.518Z,101519.13
2019-02-22T13:34:45.404Z,101523.36
2019-02-22T13:37:16.144Z,101522.75
2019-02-22T13:39:47.252Z,101523.94
2019-02-22T13:42:18.491Z,101524.79
2019-02-22T13:44:51.609Z,101532.50
2019-02-22T13:47:22.285Z,101532.64
2019-02-22T13:49:52.711Z,101531.32
2019-02-22T13:52:23.240Z,101531.61
2019-02-22T13:55:02.750Z,101543.23
2019-02-22T13:57:35.140Z,101544.88
2019-02-22T14:00:10.560Z,101545.73
2019-02-22T14:02:41.786Z,101545.59
2019-02-22T14:05:37.509Z,101552.69
2019-02-22T14:08:12.037Z,101553.86
2019-02-22T14:10:42.990Z,101561.72
2019-02-22T14:13:19.709Z,101552.20
2019-02-22T14:15:55.169Z,101553.51
2019-02-22T14:18:25.775Z,101557.72
2019-02-22T14:20:58.756Z,101560.20
2019-02-22T14:23:31.275Z,101566.90
2019-02-22T14:26:05.277Z,101568.20
2019-02-22T14:28:39.764Z,101576.55
2019-02-22T14:31:18.784Z,101579.31
2019-02-22T14:34:40.885Z,101575.02
2019-02-22T14:48:57.198Z,101602.96
2019-02-22T14:51:27.784Z,101599.10
2019-02-22T14:53:58.635Z,101598.80
2019-02-22T14:56:29.002Z,101607.39
2019-02-22T14:58:59.825Z,101614.39
2019-02-22T15:01:35.503Z,101616.92
2019-02-22T15:21:31.591Z,101622.57
2019-02-22T15:24:02.180Z,101619.27
2019-02-22T15:27:04.375Z,101619.27
2019-02-22T15:29:37.128Z,101541.64
2019-02-22T15:32:06.506Z,101619.34
2019-02-22T15:34:37.044Z,101620.78
2019-02-22T15:37:07.396Z,101628.38
2019-02-22T15:39:37.732Z,101570.08
2019-02-22T15:42:08.304Z,101643.06
2019-02-22T15:44:39.572Z,101643.06
2019-02-22T15:55:32.437Z,101653.78
2019-02-22T15:58:05.208Z,101668.16
2019-02-22T16:00:35.680Z,101666.33
2019-02-22T16:03:08.222Z,101666.33
2019-02-22T16:05:41.189Z,101676.22
2019-02-22T16:08:11.677Z,101661.80
2019-02-22T16:10:44.540Z,101677.08
2019-02-22T16:13:16.759Z,101677.08
2019-02-22T16:15:48.363Z,101683.72
2019-02-22T16:18:20.594Z,101678.41
2019-02-22T16:20:57.603Z,101678.41
2019-02-22T16:23:28.662Z,101525.63
2019-02-22T16:25:59.008Z,101677.05
2019-02-22T16:28:31.718Z,101680.84
2019-02-22T16:31:03.552Z,101680.09
2019-02-22T16:33:34.472Z,101679.26
2019-02-22T16:36:08.060Z,101691.42
2019-02-22T16:38:38.449Z,101691.42
2019-02-22T16:41:10.034Z,101699.25
2019-02-22T16:43:40.555Z,101699.25
2019-02-22T16:46:10.950Z,101703.30
2019-02-22T16:48:41.313Z,101704.82
2019-02-22T16:51:12.053Z,101711.59
2019-02-22T16:53:42.616Z,101712.02
2019-02-22T16:56:13.178Z,101719.97
2019-02-22T16:58:43.381Z,101729.33
2019-02-22T17:01:15.854Z,101729.33
2019-02-22T17:03:46.541Z,101730.88
2019-02-22T17:06:17.728Z,101739.31
2019-02-22T17:08:49.096Z,101728.87
2019-02-22T17:11:21.031Z,101647.91
2019-02-22T17:13:51.497Z,101727.51
2019-02-22T17:16:45.716Z,101731.41
2019-02-22T17:19:14.655Z,101729.28
2019-02-22T17:21:47.682Z,101633.79
2019-02-22T17:24:18.672Z,101728.38
2019-02-22T17:26:49.706Z,101730.22
2019-02-22T17:29:20.204Z,101736.86
2019-02-22T17:31:53.160Z,101728.34
2019-02-22T17:34:23.542Z,101734.50
2019-02-22T17:36:54.663Z,101739.52
2019-02-22T17:39:25.149Z,101750.78
2019-02-22T17:41:55.547Z,101757.83
2019-02-22T17:44:25.812Z,101759.48
2019-02-22T17:46:57.880Z,101765.65
2019-02-22T17:49:31.162Z,101777.38
2019-02-22T17:52:01.907Z,101788.28
2019-02-22T17:54:32.591Z,101790.31
2019-02-22T17:57:03.421Z,101796.75
2019-02-22T17:59:33.843Z,101802.80
2019-02-22T18:02:04.198Z,101796.75
2019-02-22T18:04:34.643Z,101795.80
2019-02-22T18:07:06.266Z,101796.75
2019-02-22T18:09:36.470Z,101810.58
2019-02-22T18:12:06.833Z,101809.04
2019-02-22T18:14:37.722Z,101810.94
2019-02-22T18:17:08.872Z,101811.45
2019-02-22T18:19:39.278Z,101813.86
2019-02-22T18:22:10.932Z,101825.31
2019-02-22T18:24:45.995Z,101828.31
2019-02-22T18:27:17.542Z,101821.08
2019-02-22T18:29:48.421Z,101821.55
2019-02-22T18:32:18.952Z,101815.40
2019-02-22T18:34:49.478Z,101811.84
2019-02-22T18:37:20.406Z,101820.02
2019-02-22T18:39:51.560Z,101835.30
2019-02-22T18:42:22.041Z,101839.53
2019-02-22T18:44:53.203Z,101829.58
2019-02-22T18:47:23.672Z,101824.01
2019-02-22T18:49:54.432Z,101818.48
2019-02-22T18:52:25.000Z,101817.65
2019-02-22T18:54:55.477Z,101826.77
2019-02-22T18:57:25.996Z,101834.03
2019-02-22T18:59:56.550Z,101843.63
2019-02-22T19:02:27.327Z,101789.31
2019-02-22T19:04:57.780Z,101831.54
2019-02-22T19:07:28.318Z,101833.59
2019-02-22T19:09:59.863Z,101830.72
2019-02-22T19:12:31.211Z,101835.89
2019-02-22T19:15:01.857Z,101833.79
2019-02-22T19:17:32.201Z,101830.48
2019-02-22T19:20:05.210Z,101838.50
2019-02-22T19:22:36.687Z,101848.95
2019-02-22T19:25:10.383Z,101853.25
2019-02-22T19:27:41.917Z,101852.72
2019-02-22T19:30:18.334Z,101861.83
2019-02-22T19:32:49.272Z,101857.33
2019-02-22T19:35:21.977Z,101866.83
2019-02-22T19:37:53.837Z,101880.44
2019-02-22T19:40:25.362Z,101887.69
2019-02-22T19:42:57.263Z,101883.07
2019-02-22T19:45:28.051Z,101880.62
2019-02-22T19:48:00.105Z,101867.47
2019-02-22T19:50:41.364Z,101798.12
2019-02-22T19:53:06.694Z,101859.92
2019-02-22T19:55:38.500Z,101861.36
2019-02-22T19:58:08.794Z,101867.98
2019-02-22T20:00:39.433Z,101874.02
2019-02-22T20:06:26.404Z,101882.77
2019-02-22T20:08:57.355Z,101875.58
2019-02-22T20:11:31.511Z,101871.55
2019-02-22T20:14:02.425Z,101871.70
2019-02-22T20:16:33.407Z,101868.60
2019-02-22T20:19:03.912Z,101876.30
2019-02-22T20:21:35.388Z,101870.15
2019-02-22T20:24:07.677Z,101871.56
2019-02-22T20:26:38.293Z,101879.72
2019-02-22T20:29:08.824Z,101884.82
2019-02-22T20:31:39.259Z,101892.30
2019-02-22T20:34:09.704Z,101899.64
2019-02-22T20:36:44.132Z,101902.47
2019-02-22T20:39:15.871Z,101898.11
2019-02-22T20:41:46.595Z,101907.21
2019-02-22T20:44:18.843Z,101910.17
2019-02-22T20:46:50.244Z,101916.89
2019-02-22T20:49:21.094Z,101920.93
2019-02-22T20:51:52.068Z,101923.75
2019-02-22T20:54:23.059Z,101921.05
2019-02-22T20:56:54.457Z,101926.72
2019-02-22T20:59:25.455Z,101929.18
2019-02-22T21:01:57.320Z,101934.16
2019-02-22T21:04:28.868Z,101938.73
2019-02-22T21:07:00.886Z,101946.63
2019-02-22T21:09:33.354Z,101951.13
2019-02-22T21:12:03.927Z,101951.58
2019-02-22T21:14:36.427Z,101947.03
2019-02-22T21:17:08.527Z,101953.29
2019-02-22T21:19:40.044Z,101965.63
2019-02-22T21:22:10.726Z,101966.00
2019-02-22T21:24:42.165Z,101958.19
2019-02-22T21:27:13.065Z,101888.84
2019-02-22T21:29:44.180Z,101962.91
2019-02-22T21:32:14.725Z,101972.00
2019-02-22T21:34:45.139Z,101953.11
2019-02-22T21:37:15.499Z,101952.42
2019-02-22T21:39:46.145Z,101950.75
2019-02-22T21:42:20.622Z,101865.60
2019-02-22T21:44:51.209Z,101955.56
2019-02-22T21:47:24.970Z,101954.73
2019-02-22T21:49:55.904Z,101960.66
2019-02-22T21:52:27.088Z,101962.16
2019-02-22T21:54:58.140Z,101966.78
2019-02-22T21:57:28.757Z,101967.62
2019-02-22T21:59:59.241Z,101970.34
2019-02-22T22:02:29.799Z,101966.08
2019-02-22T22:05:00.564Z,101969.61
2019-02-22T22:07:31.033Z,101966.98
2019-02-22T22:10:01.763Z,101966.76
2019-02-22T22:12:33.066Z,101974.29
2019-02-22T22:15:04.522Z,101971.90
2019-02-22T22:17:35.024Z,101967.81
2019-02-22T22:20:07.182Z,101968.02
2019-02-22T22:22:37.712Z,101969.52
2019-02-22T22:25:09.700Z,101973.60
2019-02-22T22:27:40.045Z,101972.33
2019-02-22T22:30:12.144Z,101973.65
2019-02-22T22:32:42.655Z,101970.33
2019-02-22T22:35:13.347Z,101977.19
2019-02-22T22:37:44.053Z,101973.01
2019-02-22T22:40:14.583Z,101982.50
2019-02-22T22:42:45.027Z,101989.02
2019-02-22T22:45:15.465Z,101985.64
2019-02-22T22:47:46.155Z,101995.02
2019-02-22T22:50:16.590Z,101992.06
2019-02-22T22:52:47.039Z,101988.20
2019-02-22T22:55:17.382Z,101994.78
2019-02-22T22:57:47.932Z,101997.03
2019-02-22T23:00:35.741Z,101995.92
2019-02-22T23:03:08.572Z,101988.70
2019-02-22T23:05:38.915Z,101895.56
2019-02-22T23:08:09.721Z,101975.05
2019-02-22T23:10:41.603Z,101979.02
2019-02-22T23:13:12.272Z,101975.59
2019-02-22T23:15:43.072Z,101977.82
2019-02-22T23:18:13.940Z,101978.66
2019-02-22T23:20:44.307Z,101981.70
2019-02-22T23:23:15.497Z,101986.33
2019-02-22T23:25:46.309Z,101989.02
2019-02-22T23:28:16.807Z,101996.70
2019-02-22T23:30:47.209Z,102013.33
2019-02-22T23:33:19.083Z,102011.10
2019-02-22T23:35:49.400Z,102000.09
2019-02-22T23:38:19.841Z,101989.35
2019-02-22T23:40:50.298Z,101980.84
2019-02-22T23:43:20.869Z,101982.72
2019-02-22T23:45:51.377Z,101981.77
2019-02-22T23:48:21.660Z,101981.58
2019-02-22T23:50:52.020Z,101982.78
2019-02-22T23:53:22.849Z,101991.39
2019-02-22T23:55:53.523Z,102002.55
2019-02-22T23:58:24.137Z,102019.98
